createdAt,value
2022-11-19T00:01:58.006Z,22.42
2022-11-19T00:04:10.484Z,22.75
2022-11-19T00:06:18.084Z,27.75
2022-11-19T00:08:23.559Z,24.80
2022-11-19T00:10:29.160Z,22.90
2022-11-19T00:12:46.686Z,23.38
2022-11-19T00:14:51.824Z,25.25
2022-11-19T00:16:57.434Z,23.38
2022-11-19T00:19:05.195Z,25.83
2022-11-19T00:21:13.050Z,27.52
2022-11-19T00:23:18.890Z,24.13
2022-11-19T00:25:25.661Z,24.40
2022-11-19T00:27:31.268Z,23.40
2022-11-19T00:29:37.509Z,27.00
2022-11-19T00:31:42.921Z,26.20
2022-11-19T00:33:50.724Z,25.52
2022-11-19T00:36:01.833Z,28.55
2022-11-19T00:38:07.083Z,28.85
2022-11-19T00:40:13.435Z,26.75
2022-11-19T00:42:19.035Z,27.63
2022-11-19T00:44:21.515Z,28.17
2022-11-19T00:46:29.548Z,28.42
2022-11-19T00:48:35.163Z,29.00
2022-11-19T00:50:40.982Z,28.42
2022-11-19T00:52:49.078Z,25.35
2022-11-19T00:54:54.185Z,26.88
2022-11-19T00:56:59.304Z,26.65
2022-11-19T00:59:04.452Z,28.15
2022-11-19T01:01:12.058Z,25.70
2022-11-19T01:03:17.604Z,26.77
2022-11-19T01:05:23.126Z,23.42
2022-11-19T01:07:28.695Z,25.30
2022-11-19T01:09:36.922Z,24.98
2022-11-19T01:11:42.013Z,25.65
2022-11-19T01:13:45.077Z,26.20
2022-11-19T01:15:51.671Z,26.60
2022-11-19T01:17:57.212Z,26.63
2022-11-19T01:20:02.224Z,25.95
2022-11-19T01:22:07.775Z,26.98
2022-11-19T01:24:12.733Z,27.33
2022-11-19T01:26:21.500Z,25.80
2022-11-19T01:28:27.961Z,28.58
2022-11-19T01:30:33.190Z,25.30
2022-11-19T01:32:38.536Z,26.25
2022-11-19T01:34:43.921Z,24.75
2022-11-19T01:36:49.176Z,27.30
2022-11-19T01:38:55.420Z,27.30
2022-11-19T01:41:02.468Z,28.30
2022-11-19T01:43:14.243Z,30.00
2022-11-19T01:45:30.197Z,29.45
2022-11-19T01:47:36.782Z,28.58
2022-11-19T01:49:41.802Z,27.85
2022-11-19T01:51:52.641Z,33.17
2022-11-19T01:54:01.032Z,29.55
2022-11-19T01:56:09.566Z,34.38
2022-11-19T01:58:24.007Z,26.15
2022-11-19T02:00:30.659Z,30.67
2022-11-19T02:02:37.875Z,29.00
2022-11-19T02:04:43.569Z,31.80
2022-11-19T02:06:50.455Z,25.02
2022-11-19T02:08:55.679Z,24.77
2022-11-19T02:11:13.692Z,28.83
2022-11-19T02:13:33.105Z,26.17
2022-11-19T02:18:27.703Z,27.73
2022-11-19T02:20:52.955Z,23.90
2022-11-19T02:23:46.179Z,27.35
2022-11-19T02:26:22.793Z,28.77
2022-11-19T02:28:40.992Z,25.67
2022-11-19T02:30:54.244Z,28.65
2022-11-19T02:33:05.993Z,29.45
2022-11-19T02:35:26.684Z,29.73
2022-11-19T02:37:40.122Z,32.38
2022-11-19T02:39:53.493Z,29.75
2022-11-19T02:42:07.625Z,29.27
2022-11-19T02:44:35.073Z,28.48
2022-11-19T02:46:44.338Z,27.30
2022-11-19T02:48:55.234Z,28.50
2022-11-19T02:51:03.568Z,26.85
2022-11-19T02:53:08.959Z,27.17
2022-11-19T02:55:16.006Z,26.65
2022-11-19T02:57:21.341Z,24.97
2022-11-19T02:59:44.856Z,27.20
2022-11-19T03:02:06.055Z,25.40
2022-11-19T03:04:26.139Z,23.50
2022-11-19T03:06:33.046Z,27.00
2022-11-19T03:08:38.897Z,25.20
2022-11-19T03:10:57.536Z,26.17
2022-11-19T03:13:26.625Z,25.67
2022-11-19T03:15:54.532Z,23.20
2022-11-19T03:18:15.490Z,25.77
2022-11-19T03:20:27.850Z,24.65
2022-11-19T03:22:37.856Z,25.27
2022-11-19T03:24:47.433Z,24.58
2022-11-19T03:26:59.579Z,26.00
2022-11-19T03:29:11.167Z,31.83
2022-11-19T03:31:21.044Z,25.85
2022-11-19T03:33:35.141Z,25.45
2022-11-19T03:35:47.846Z,29.48
2022-11-19T03:37:58.811Z,27.27
2022-11-19T03:40:05.805Z,25.52
2022-11-19T03:42:16.252Z,29.80
2022-11-19T03:44:27.148Z,28.30
2022-11-19T03:46:34.397Z,28.20
2022-11-19T03:48:47.447Z,27.60
2022-11-19T03:51:00.513Z,28.17
2022-11-19T03:53:06.278Z,27.58
2022-11-19T03:55:13.019Z,27.33
2022-11-19T03:57:22.218Z,27.05
2022-11-19T03:59:30.131Z,27.98
2022-11-19T04:01:36.903Z,23.45
2022-11-19T04:04:05.204Z,24.55
2022-11-19T04:06:10.908Z,30.70
2022-11-19T04:08:16.328Z,28.55
2022-11-19T04:10:21.369Z,27.15
2022-11-19T04:12:27.864Z,25.58
2022-11-19T04:14:33.552Z,25.20
2022-11-19T04:16:38.942Z,25.48
2022-11-19T04:18:46.496Z,24.50
2022-11-19T04:22:56.705Z,22.70
2022-11-19T04:25:02.284Z,22.38
2022-11-19T04:27:09.572Z,23.98
2022-11-19T04:29:14.701Z,23.15
2022-11-19T04:31:20.013Z,23.88
2022-11-19T04:33:25.539Z,23.15
2022-11-19T04:35:33.817Z,25.30
2022-11-19T04:37:38.840Z,25.80
2022-11-19T04:39:45.071Z,21.75
2022-11-19T04:41:50.244Z,22.08
2022-11-19T04:43:55.689Z,21.77
2022-11-19T04:46:00.671Z,22.10
2022-11-19T04:48:05.980Z,20.60
2022-11-19T04:50:12.820Z,17.65
2022-11-19T04:52:20.922Z,20.65
2022-11-19T04:54:26.642Z,22.60
2022-11-19T04:56:32.395Z,21.58
2022-11-19T04:58:38.001Z,22.17
2022-11-19T05:00:44.035Z,21.90
2022-11-19T05:02:49.021Z,23.08
2022-11-19T05:04:54.767Z,23.50
2022-11-19T05:06:59.841Z,22.63
2022-11-19T05:09:07.680Z,25.48
2022-11-19T05:11:14.064Z,21.63
2022-11-19T05:13:19.844Z,21.52
2022-11-19T05:15:27.580Z,22.38
2022-11-19T05:17:32.763Z,25.15
2022-11-19T05:19:37.735Z,24.92
2022-11-19T05:21:43.205Z,21.95
2022-11-19T05:23:48.714Z,21.77
2022-11-19T05:25:56.269Z,23.55
2022-11-19T05:30:08.541Z,22.52
2022-11-19T05:32:13.890Z,26.90
2022-11-19T05:34:19.114Z,30.77
2022-11-19T05:36:24.928Z,24.33
2022-11-19T05:38:31.005Z,24.15
2022-11-19T05:40:36.578Z,23.58
2022-11-19T05:42:44.548Z,23.90
2022-11-19T05:44:49.547Z,28.25
2022-11-19T05:46:56.839Z,26.88
2022-11-19T05:49:02.549Z,28.48
2022-11-19T05:51:08.329Z,24.02
2022-11-19T05:53:13.544Z,24.38
2022-11-19T05:55:20.818Z,25.77
2022-11-19T05:57:24.343Z,28.40
2022-11-19T05:59:32.869Z,27.90
2022-11-19T06:01:37.876Z,26.80
2022-11-19T06:03:43.335Z,28.15
2022-11-19T06:05:48.359Z,30.23
2022-11-19T06:07:53.602Z,25.67
2022-11-19T06:09:58.593Z,28.23
2022-11-19T06:12:04.384Z,27.08
2022-11-19T06:14:09.628Z,29.13
2022-11-19T06:16:17.155Z,24.40
2022-11-19T06:18:23.377Z,27.75
2022-11-19T06:20:28.587Z,30.48
2022-11-19T06:24:40.918Z,31.08
2022-11-19T06:26:46.695Z,30.35
2022-11-19T06:28:51.662Z,27.80
2022-11-19T06:30:56.805Z,25.88
2022-11-19T06:33:06.969Z,24.50
2022-11-19T06:35:14.458Z,27.63
2022-11-19T06:37:20.025Z,26.02
2022-11-19T06:39:24.992Z,26.45
2022-11-19T06:41:29.960Z,24.88
2022-11-19T06:43:33.251Z,27.95
2022-11-19T06:45:38.268Z,28.20
2022-11-19T06:47:45.161Z,27.20
2022-11-19T06:49:53.036Z,30.33
2022-11-19T06:51:58.074Z,30.65
2022-11-19T06:54:04.331Z,26.00
2022-11-19T06:56:11.418Z,29.83
2022-11-19T06:58:16.796Z,28.10
2022-11-19T07:00:22.507Z,29.63
2022-11-19T07:02:27.479Z,26.80
2022-11-19T07:04:32.775Z,25.73
2022-11-19T07:06:40.377Z,34.10
2022-11-19T07:08:46.275Z,35.05
2022-11-19T07:10:51.468Z,35.88
2022-11-19T07:12:56.645Z,33.03
2022-11-19T07:15:04.613Z,30.77
2022-11-19T07:17:10.217Z,31.60
2022-11-19T07:19:15.769Z,31.40
2022-11-19T07:21:20.810Z,34.13
2022-11-19T07:23:29.723Z,31.48
2022-11-19T07:25:36.856Z,33.80
2022-11-19T07:27:46.949Z,29.30
2022-11-19T07:29:53.229Z,30.05
2022-11-19T07:31:58.605Z,32.30
2022-11-19T07:34:03.827Z,33.95
2022-11-19T07:36:15.470Z,30.35
2022-11-19T07:38:24.617Z,30.42
2022-11-19T07:40:34.094Z,30.85
2022-11-19T07:42:49.763Z,31.00
2022-11-19T07:44:55.232Z,33.13
2022-11-19T07:47:03.000Z,30.58
2022-11-19T07:49:08.026Z,29.55
2022-11-19T07:51:13.165Z,30.10
2022-11-19T07:53:18.678Z,29.38
2022-11-19T07:55:24.674Z,30.73
2022-11-19T07:57:32.924Z,33.33
2022-11-19T07:59:38.407Z,31.40
2022-11-19T08:01:43.745Z,26.63
2022-11-19T08:03:53.449Z,26.75
2022-11-19T08:06:01.112Z,27.45
2022-11-19T08:08:07.414Z,26.42
2022-11-19T08:10:15.036Z,27.80
2022-11-19T08:12:20.919Z,37.53
2022-11-19T08:14:29.640Z,29.95
2022-11-19T08:16:54.458Z,29.33
2022-11-19T08:18:59.455Z,28.05
2022-11-19T08:21:09.633Z,25.63
2022-11-19T08:23:16.752Z,28.92
2022-11-19T08:25:22.772Z,26.02
2022-11-19T08:27:27.889Z,30.45
2022-11-19T08:29:35.833Z,29.45
2022-11-19T08:31:41.742Z,30.98
2022-11-19T08:33:47.542Z,28.83
2022-11-19T08:35:56.690Z,26.55
2022-11-19T08:38:03.073Z,26.35
2022-11-19T08:40:23.051Z,24.67
2022-11-19T08:42:40.483Z,25.27
2022-11-19T08:44:48.271Z,26.92
2022-11-19T08:46:54.123Z,24.90
2022-11-19T08:48:59.120Z,25.42
2022-11-19T08:51:10.204Z,27.67
2022-11-19T08:53:18.920Z,25.85
2022-11-19T08:55:24.838Z,23.27
2022-11-19T08:57:31.032Z,28.17
2022-11-19T08:59:36.340Z,24.60
2022-11-19T09:01:45.554Z,29.38
2022-11-19T09:03:50.726Z,25.92
2022-11-19T09:06:02.413Z,26.02
2022-11-19T09:08:07.817Z,25.50
2022-11-19T09:10:13.713Z,22.42
2022-11-19T09:12:19.052Z,24.42
2022-11-19T09:14:25.693Z,23.25
2022-11-19T09:16:31.274Z,26.55
2022-11-19T09:18:42.699Z,25.50
2022-11-19T09:20:48.799Z,23.77
2022-11-19T09:22:55.276Z,23.25
2022-11-19T09:25:03.166Z,23.00
2022-11-19T09:27:08.132Z,23.42
2022-11-19T09:29:14.365Z,23.27
2022-11-19T09:31:22.101Z,24.17
2022-11-19T09:33:27.956Z,25.00
2022-11-19T09:35:38.234Z,24.40
2022-11-19T09:37:43.227Z,24.63
2022-11-19T09:39:48.777Z,25.50
2022-11-19T09:42:03.096Z,61.30
2022-11-19T09:44:23.674Z,27.90
2022-11-19T09:46:41.310Z,23.30
2022-11-19T09:48:46.776Z,22.73
2022-11-19T09:51:00.307Z,22.52
2022-11-19T09:53:11.979Z,27.13
2022-11-19T09:55:23.393Z,22.15
2022-11-19T09:57:38.603Z,21.60
2022-11-19T09:59:44.597Z,24.98
2022-11-19T10:01:50.789Z,22.08
2022-11-19T10:03:59.052Z,24.67
2022-11-19T10:08:55.778Z,20.13
2022-11-19T10:11:22.277Z,20.73
2022-11-19T10:13:53.373Z,23.70
2022-11-19T10:16:21.197Z,20.50
2022-11-19T10:18:36.734Z,22.15
2022-11-19T10:21:01.402Z,20.80
2022-11-19T10:23:19.173Z,18.98
2022-11-19T10:25:28.299Z,19.40
2022-11-19T10:27:45.184Z,21.30
2022-11-19T10:29:53.952Z,18.63
2022-11-19T10:32:24.946Z,21.35
2022-11-19T10:34:34.901Z,24.70
2022-11-19T10:36:50.171Z,18.90
2022-11-19T10:39:08.428Z,17.50
2022-11-19T10:41:20.004Z,19.15
2022-11-19T10:43:33.070Z,17.38
2022-11-19T10:45:38.814Z,18.38
2022-11-19T10:47:50.541Z,19.23
2022-11-19T10:49:57.773Z,19.02
2022-11-19T10:52:03.491Z,15.73
2022-11-19T10:54:25.287Z,15.93
2022-11-19T10:56:40.283Z,15.85
2022-11-19T10:58:51.549Z,19.08
2022-11-19T11:01:01.138Z,16.45
2022-11-19T11:03:08.026Z,15.00
2022-11-19T11:05:16.534Z,17.15
2022-11-19T11:07:22.024Z,15.75
2022-11-19T11:09:37.265Z,18.25
2022-11-19T11:11:54.851Z,15.70
2022-11-19T11:14:15.306Z,16.40
2022-11-19T11:16:24.236Z,15.27
2022-11-19T11:18:35.271Z,18.08
2022-11-19T11:20:51.082Z,17.80
2022-11-19T11:23:12.124Z,17.13
2022-11-19T11:25:27.808Z,20.58
2022-11-19T11:27:36.419Z,20.60
2022-11-19T11:29:44.297Z,18.55
2022-11-19T11:34:02.601Z,18.98
2022-11-19T11:36:13.866Z,19.52
2022-11-19T11:38:24.579Z,19.27
2022-11-19T11:40:33.253Z,22.23
2022-11-19T11:42:39.788Z,16.77
2022-11-19T11:44:54.371Z,21.52
2022-11-19T11:47:03.853Z,19.10
2022-11-19T11:49:18.275Z,20.23
2022-11-19T11:51:36.616Z,18.55
2022-11-19T11:53:43.425Z,21.77
2022-11-19T11:56:04.304Z,20.10
2022-11-19T11:58:37.384Z,16.40
2022-11-19T12:00:48.509Z,16.55
2022-11-19T12:03:04.353Z,15.18
2022-11-19T12:05:19.837Z,14.75
2022-11-19T12:08:02.847Z,16.85
2022-11-19T12:10:28.603Z,17.13
2022-11-19T12:12:45.170Z,17.63
2022-11-19T12:15:00.633Z,18.83
2022-11-19T12:17:29.554Z,17.23
2022-11-19T12:19:50.628Z,16.25
2022-11-19T12:22:06.317Z,18.15
2022-11-19T12:24:30.615Z,21.20
2022-11-19T12:26:48.739Z,19.10
2022-11-19T12:29:13.462Z,20.10
2022-11-19T12:31:39.413Z,19.02
2022-11-19T12:34:21.225Z,21.70
2022-11-19T12:36:33.109Z,17.10
2022-11-19T12:38:50.172Z,18.25
2022-11-19T12:41:10.309Z,17.13
2022-11-19T12:43:39.361Z,20.63
2022-11-19T12:45:59.838Z,17.75
2022-11-19T12:48:45.955Z,21.33
2022-11-19T12:53:21.049Z,21.95
2022-11-19T12:55:39.336Z,20.85
2022-11-19T12:57:54.645Z,23.42
2022-11-19T13:00:15.458Z,21.88
2022-11-19T13:02:31.275Z,19.98
2022-11-19T13:04:45.186Z,22.85
2022-11-19T13:07:02.518Z,21.35
2022-11-19T13:09:18.825Z,19.85
2022-11-19T13:11:36.365Z,20.55
2022-11-19T13:13:48.555Z,20.15
2022-11-19T13:16:03.057Z,23.92
2022-11-19T13:18:17.407Z,20.50
2022-11-19T13:20:30.855Z,22.77
2022-11-19T13:22:39.936Z,20.23
2022-11-19T13:24:49.641Z,22.48
2022-11-19T13:26:58.251Z,22.33
2022-11-19T13:29:17.210Z,26.50
2022-11-19T13:31:33.147Z,23.38
2022-11-19T13:33:50.843Z,22.38
2022-11-19T13:36:03.555Z,21.33
2022-11-19T13:38:21.363Z,22.35
2022-11-19T13:40:32.134Z,21.73
2022-11-19T13:43:04.212Z,21.38
2022-11-19T13:45:18.108Z,21.38
2022-11-19T13:47:28.978Z,22.40
2022-11-19T13:49:42.510Z,24.13
2022-11-19T13:51:51.373Z,30.15
2022-11-19T13:54:03.276Z,34.25
2022-11-19T13:56:14.035Z,22.50
2022-11-19T13:58:25.009Z,27.65
2022-11-19T14:00:31.497Z,23.65
2022-11-19T14:03:07.869Z,24.40
2022-11-19T14:06:08.512Z,27.80
2022-11-19T14:08:28.675Z,29.92
2022-11-19T14:10:39.710Z,25.23
2022-11-19T14:13:09.499Z,24.92
2022-11-19T14:15:42.064Z,27.20
2022-11-19T14:18:09.533Z,29.33
2022-11-19T14:20:53.993Z,24.45
2022-11-19T14:23:12.469Z,27.48
2022-11-19T14:25:58.196Z,23.63
2022-11-19T14:28:48.812Z,25.80
2022-11-19T14:31:07.120Z,28.40
2022-11-19T14:33:57.480Z,29.45
2022-11-19T14:36:13.417Z,28.00
2022-11-19T14:38:45.583Z,29.02
2022-11-19T14:41:03.929Z,24.92
2022-11-19T14:43:40.602Z,28.50
2022-11-19T14:46:28.108Z,27.73
2022-11-19T14:48:49.540Z,28.95
2022-11-19T14:51:07.341Z,25.98
2022-11-19T14:53:23.403Z,26.30
2022-11-19T14:55:31.058Z,25.25
2022-11-19T14:59:52.332Z,26.73
2022-11-19T15:02:06.569Z,24.67
2022-11-19T15:04:15.932Z,24.33
2022-11-19T15:06:24.722Z,25.65
2022-11-19T15:08:50.249Z,25.70
2022-11-19T15:11:08.713Z,26.30
2022-11-19T15:13:27.674Z,27.38
2022-11-19T15:15:44.720Z,27.42
2022-11-19T15:17:52.036Z,27.15
2022-11-19T15:20:21.154Z,22.75
2022-11-19T15:22:41.404Z,25.25
2022-11-19T15:25:13.880Z,24.42
2022-11-19T15:27:31.601Z,23.17
2022-11-19T15:30:05.595Z,27.43
2022-11-19T15:32:27.611Z,24.38
2022-11-19T15:35:10.392Z,24.48
2022-11-19T15:37:20.291Z,28.38
2022-11-19T15:39:34.512Z,25.42
2022-11-19T15:42:00.402Z,25.92
2022-11-19T15:44:10.656Z,31.17
2022-11-19T15:46:27.361Z,25.90
2022-11-19T15:48:42.321Z,26.70
2022-11-19T15:50:48.162Z,26.15
2022-11-19T15:53:04.450Z,25.73
2022-11-19T15:55:23.422Z,22.42
2022-11-19T15:57:29.824Z,26.60
2022-11-19T15:59:40.469Z,26.17
2022-11-19T16:01:46.744Z,27.92
2022-11-19T16:03:56.178Z,26.50
2022-11-19T16:06:08.528Z,26.52
2022-11-19T16:08:17.447Z,28.33
2022-11-19T16:10:31.539Z,25.50
2022-11-19T16:12:49.302Z,26.90
2022-11-19T16:17:31.246Z,25.23
2022-11-19T16:19:36.510Z,29.40
2022-11-19T16:21:44.761Z,29.55
2022-11-19T16:24:02.250Z,31.38
2022-11-19T16:26:09.808Z,24.08
2022-11-19T16:28:18.714Z,27.20
2022-11-19T16:30:26.737Z,29.27
2022-11-19T16:32:31.741Z,28.65
2022-11-19T16:34:37.694Z,32.05
2022-11-19T16:36:42.899Z,31.65
2022-11-19T16:38:51.326Z,34.42
2022-11-19T16:41:09.637Z,30.38
2022-11-19T16:43:18.268Z,34.42
2022-11-19T16:45:26.693Z,32.35
2022-11-19T16:47:35.540Z,31.52
2022-11-19T16:50:03.729Z,28.63
2022-11-19T16:52:09.081Z,28.15
2022-11-19T16:54:14.688Z,29.38
2022-11-19T16:56:19.676Z,31.63
2022-11-19T16:58:30.505Z,32.33
2022-11-19T17:00:38.419Z,30.75
2022-11-19T17:04:51.650Z,31.35
2022-11-19T17:06:57.039Z,31.77
2022-11-19T17:09:04.102Z,29.70
2022-11-19T17:11:34.227Z,30.75
2022-11-19T17:13:42.460Z,29.33
2022-11-19T17:15:49.256Z,29.25
2022-11-19T17:17:55.589Z,30.30
2022-11-19T17:20:00.810Z,31.67
2022-11-19T17:22:08.471Z,30.08
2022-11-19T17:24:16.111Z,29.13
2022-11-19T17:26:26.606Z,34.67
2022-11-19T17:28:41.054Z,33.38
2022-11-19T17:30:49.641Z,34.05
2022-11-19T17:32:58.831Z,32.63
2022-11-19T17:35:03.765Z,32.00
2022-11-19T17:37:11.551Z,33.60
2022-11-19T17:39:21.189Z,42.90
2022-11-19T17:41:45.474Z,30.67
2022-11-19T17:44:02.867Z,30.70
2022-11-19T17:46:10.546Z,31.70
2022-11-19T17:48:23.352Z,32.03
2022-11-19T17:50:28.302Z,32.38
2022-11-19T17:52:34.835Z,27.38
2022-11-19T17:54:39.973Z,33.28
2022-11-19T17:56:45.294Z,32.30
2022-11-19T17:58:50.592Z,30.70
2022-11-19T18:00:55.559Z,28.80
2022-11-19T18:03:03.475Z,31.20
2022-11-19T18:07:21.678Z,30.75
2022-11-19T18:09:28.059Z,33.45
2022-11-19T18:11:36.388Z,30.70
2022-11-19T18:13:43.323Z,32.83
2022-11-19T18:15:48.329Z,32.72
2022-11-19T18:17:54.620Z,33.90
2022-11-19T18:20:02.579Z,35.00
2022-11-19T18:22:08.417Z,32.58
2022-11-19T18:24:15.182Z,34.45
2022-11-19T18:26:24.980Z,37.00
2022-11-19T18:28:29.897Z,31.45
2022-11-19T18:30:35.059Z,29.75
2022-11-19T18:32:40.386Z,34.60
2022-11-19T18:34:46.492Z,34.13
2022-11-19T18:36:54.592Z,35.83
2022-11-19T18:38:59.536Z,36.85
2022-11-19T18:41:04.697Z,33.58
2022-11-19T18:43:22.124Z,34.20
2022-11-19T18:45:27.246Z,32.92
2022-11-19T18:47:32.640Z,36.58
2022-11-19T18:49:38.547Z,35.70
2022-11-19T18:51:44.803Z,33.60
2022-11-19T18:53:52.737Z,35.83
2022-11-19T18:55:57.812Z,36.33
2022-11-19T18:58:03.085Z,34.72
2022-11-19T19:00:11.522Z,34.33
2022-11-19T19:02:16.505Z,32.60
2022-11-19T19:04:22.011Z,32.63
2022-11-19T19:06:27.800Z,33.45
2022-11-19T19:08:33.189Z,31.25
2022-11-19T19:10:41.472Z,33.97
2022-11-19T19:14:52.199Z,35.40
2022-11-19T19:16:57.659Z,35.05
2022-11-19T19:19:03.570Z,36.85
2022-11-19T19:21:16.147Z,37.92
2022-11-19T19:23:21.507Z,38.25
2022-11-19T19:25:26.509Z,37.15
2022-11-19T19:27:35.099Z,35.70
2022-11-19T19:29:40.036Z,36.50
2022-11-19T19:31:44.972Z,41.50
2022-11-19T19:33:50.119Z,37.25
2022-11-19T19:35:55.214Z,38.25
2022-11-19T19:38:00.937Z,38.33
2022-11-19T19:40:06.739Z,37.90
2022-11-19T19:42:11.856Z,35.05
2022-11-19T19:44:20.221Z,36.60
2022-11-19T19:46:26.429Z,37.08
2022-11-19T19:48:32.441Z,35.38
2022-11-19T19:50:37.354Z,37.38
2022-11-19T19:52:42.455Z,36.35
2022-11-19T19:54:47.381Z,38.03
2022-11-19T19:56:53.228Z,39.60
2022-11-19T19:59:00.160Z,38.65
2022-11-19T20:01:13.269Z,35.88
2022-11-19T20:03:18.535Z,38.33
2022-11-19T20:05:23.500Z,40.35
2022-11-19T20:07:29.147Z,40.33
2022-11-19T20:09:34.518Z,35.88
2022-11-19T20:11:40.701Z,37.08
2022-11-19T20:13:47.220Z,40.38
2022-11-19T20:15:52.547Z,34.13
2022-11-19T20:18:00.120Z,33.30
2022-11-19T20:20:05.657Z,34.30
2022-11-19T20:22:10.667Z,31.35
2022-11-19T20:24:17.390Z,32.40
2022-11-19T20:26:26.097Z,33.78
2022-11-19T20:28:32.206Z,31.00
2022-11-19T20:30:37.642Z,31.17
2022-11-19T20:32:42.678Z,34.15
2022-11-19T20:34:50.200Z,34.83
2022-11-19T20:36:55.276Z,34.72
2022-11-19T20:39:00.493Z,35.42
2022-11-19T20:41:28.863Z,33.88
2022-11-19T20:46:08.322Z,36.33
2022-11-19T20:48:13.533Z,35.15
2022-11-19T20:50:21.547Z,37.70
2022-11-19T20:54:31.988Z,35.08
2022-11-19T20:56:37.780Z,40.85
2022-11-19T20:58:44.109Z,37.10
2022-11-19T21:00:49.271Z,42.25
2022-11-19T21:02:54.191Z,39.40
2022-11-19T21:04:59.599Z,41.00
2022-11-19T21:07:07.655Z,35.55
2022-11-19T21:09:12.690Z,33.47
2022-11-19T21:11:18.268Z,39.30
2022-11-19T21:13:23.204Z,37.65
2022-11-19T21:15:28.187Z,36.50
2022-11-19T21:17:33.845Z,36.15
2022-11-19T21:19:39.703Z,37.03
2022-11-19T21:21:45.631Z,40.85
2022-11-19T21:23:54.190Z,39.08
2022-11-19T21:26:03.995Z,35.50
2022-11-19T21:28:09.217Z,34.25
2022-11-19T21:30:15.638Z,31.33
2022-11-19T21:32:21.931Z,34.92
2022-11-19T21:34:27.292Z,32.08
2022-11-19T21:36:32.286Z,32.55
2022-11-19T21:38:38.565Z,33.25
2022-11-19T21:40:46.845Z,32.83
2022-11-19T21:42:52.496Z,32.25
2022-11-19T21:44:57.875Z,37.38
2022-11-19T21:47:02.824Z,33.45
2022-11-19T21:49:08.324Z,33.00
2022-11-19T21:51:15.747Z,33.90
2022-11-19T21:53:23.129Z,34.30
2022-11-19T21:55:28.576Z,35.72
2022-11-19T21:57:36.179Z,33.35
2022-11-19T21:59:41.140Z,34.65
2022-11-19T22:01:50.439Z,34.55
2022-11-19T22:03:58.734Z,32.78
2022-11-19T22:06:04.794Z,35.60
2022-11-19T22:08:09.820Z,32.78
2022-11-19T22:10:15.776Z,35.63
2022-11-19T22:12:21.336Z,34.67
2022-11-19T22:14:29.215Z,31.15
2022-11-19T22:16:37.348Z,31.90
2022-11-19T22:18:42.667Z,34.13
2022-11-19T22:20:47.737Z,35.25
2022-11-19T22:22:53.033Z,34.40
2022-11-19T22:24:58.459Z,33.63
2022-11-19T22:27:03.412Z,37.53
2022-11-19T22:29:09.355Z,35.92
2022-11-19T22:31:18.605Z,38.83
2022-11-19T22:33:23.741Z,35.45
2022-11-19T22:35:29.041Z,47.60
2022-11-19T22:37:34.108Z,38.70
2022-11-19T22:39:39.472Z,39.03
2022-11-19T22:41:44.826Z,32.60
2022-11-19T22:43:49.983Z,36.85
2022-11-19T22:45:54.973Z,36.83
2022-11-19T22:48:02.886Z,67.70
2022-11-19T22:52:16.132Z,73.97
2022-11-19T22:54:21.163Z,64.05
2022-11-19T22:56:28.618Z,38.72
2022-11-19T22:58:33.974Z,32.47
2022-11-19T23:00:45.077Z,36.80
2022-11-19T23:02:50.072Z,33.10
2022-11-19T23:04:58.033Z,33.95
2022-11-19T23:07:03.516Z,58.30
2022-11-19T23:09:10.648Z,110.03
2022-11-19T23:11:38.394Z,98.90
2022-11-19T23:13:43.941Z,57.60
2022-11-19T23:16:01.846Z,64.22
2022-11-19T23:18:07.399Z,37.83
2022-11-19T23:20:15.752Z,34.55
2022-11-19T23:22:21.145Z,35.17
2022-11-19T23:24:26.651Z,35.00
2022-11-19T23:26:34.099Z,37.22
2022-11-19T23:28:40.980Z,35.17
2022-11-19T23:30:46.291Z,33.60
2022-11-19T23:32:51.283Z,35.38
2022-11-19T23:34:56.235Z,33.55
2022-11-19T23:37:03.951Z,33.03
2022-11-19T23:39:10.905Z,104.40
2022-11-19T23:41:18.391Z,38.40
2022-11-19T23:45:29.249Z,40.53
2022-11-19T23:47:34.235Z,41.80
2022-11-19T23:49:39.608Z,43.78
2022-11-19T23:51:44.629Z,41.75
2022-11-19T23:53:53.802Z,38.00
2022-11-19T23:55:59.103Z,44.20
2022-11-19T23:58:04.106Z,41.95
